createdAt,value
2022-12-23T00:00:28.429Z,1.23
2022-12-23T00:02:55.203Z,0.90
2022-12-23T00:05:21.722Z,0.80
2022-12-23T00:07:48.114Z,2.17
2022-12-23T00:10:14.473Z,0.85
2022-12-23T00:12:59.517Z,1.35
2022-12-23T00:15:25.869Z,3.50
2022-12-23T00:17:52.215Z,0.88
2022-12-23T00:20:18.815Z,0.80
2022-12-23T00:23:03.987Z,0.73
2022-12-23T00:25:46.084Z,1.23
2022-12-23T00:28:16.909Z,0.52
2022-12-23T00:30:47.781Z,0.50
2022-12-23T00:33:15.145Z,0.65
2022-12-23T00:35:42.524Z,0.50
2022-12-23T00:38:09.145Z,0.57
2022-12-23T00:40:54.044Z,0.68
2022-12-23T00:43:20.407Z,2.05
2022-12-23T00:45:47.084Z,0.70
2022-12-23T00:48:32.387Z,0.80
2022-12-23T00:50:59.057Z,0.80
2022-12-23T00:53:25.426Z,2.70
2022-12-23T00:55:51.983Z,0.82
2022-12-23T00:58:19.102Z,0.80
2022-12-23T01:01:04.043Z,0.90
2022-12-23T01:03:49.591Z,0.75
2022-12-23T01:06:16.451Z,0.90
2022-12-23T01:08:43.160Z,0.98
2022-12-23T01:11:10.482Z,0.70
2022-12-23T01:13:37.418Z,0.70
2022-12-23T01:16:05.099Z,1.05
2022-12-23T01:18:31.601Z,0.57
2022-12-23T01:21:01.518Z,2.03
2022-12-23T01:23:27.840Z,2.38
2022-12-23T01:25:58.346Z,1.75
2022-12-23T01:28:25.035Z,0.70
2022-12-23T01:30:51.540Z,0.60
2022-12-23T01:33:17.874Z,1.15
2022-12-23T01:35:44.227Z,0.70
2022-12-23T01:38:10.685Z,0.60
2022-12-23T01:40:37.937Z,0.77
2022-12-23T01:43:04.282Z,1.98
2022-12-23T01:45:32.316Z,0.90
2022-12-23T01:48:18.979Z,0.80
2022-12-23T01:50:45.350Z,0.95
2022-12-23T01:53:13.983Z,0.77
2022-12-23T01:55:43.566Z,0.90
2022-12-23T01:58:11.916Z,0.93
2022-12-23T02:00:57.546Z,0.73
2022-12-23T02:03:42.414Z,0.52
2022-12-23T02:06:29.159Z,0.47
2022-12-23T02:09:13.940Z,0.50
2022-12-23T02:11:58.788Z,0.93
2022-12-23T02:15:02.958Z,1.92
2022-12-23T02:17:32.553Z,0.70
2022-12-23T02:20:27.736Z,0.70
2022-12-23T02:23:00.088Z,1.30
2022-12-23T02:25:42.760Z,0.50
2022-12-23T02:28:27.728Z,0.60
2022-12-23T02:31:09.520Z,0.75
2022-12-23T02:33:45.329Z,1.67
2022-12-23T02:36:27.883Z,0.82
2022-12-23T02:39:11.824Z,0.82
2022-12-23T02:41:55.484Z,0.93
2022-12-23T02:44:35.188Z,1.58
2022-12-23T02:47:05.612Z,0.73
2022-12-23T02:49:36.805Z,0.80
2022-12-23T02:52:05.064Z,1.20
2022-12-23T02:54:34.936Z,0.73
2022-12-23T02:57:03.037Z,0.98
2022-12-23T02:59:33.064Z,1.55
2022-12-23T03:02:00.690Z,0.70
2022-12-23T03:04:27.128Z,1.35
2022-12-23T03:06:54.423Z,2.25
2022-12-23T03:09:30.023Z,1.42
2022-12-23T03:12:01.473Z,1.00
2022-12-23T03:14:30.863Z,0.75
2022-12-23T03:16:57.236Z,0.95
2022-12-23T03:19:28.481Z,2.00
2022-12-23T03:21:57.682Z,1.48
2022-12-23T03:24:42.484Z,0.50
2022-12-23T03:27:27.968Z,0.75
2022-12-23T03:30:03.432Z,0.80
2022-12-23T03:32:32.629Z,1.45
2022-12-23T03:35:00.242Z,0.63
2022-12-23T03:37:27.770Z,1.08
2022-12-23T03:39:57.129Z,0.50
2022-12-23T03:42:28.745Z,0.75
2022-12-23T03:45:36.423Z,2.10
2022-12-23T03:47:52.182Z,1.20
2022-12-23T03:50:19.755Z,0.75
2022-12-23T03:52:51.506Z,0.45
2022-12-23T03:55:20.170Z,0.50
2022-12-23T03:57:50.106Z,0.43
2022-12-23T04:00:16.659Z,0.73
2022-12-23T04:02:50.524Z,1.27
2022-12-23T04:05:17.005Z,0.82
2022-12-23T04:07:47.505Z,1.60
2022-12-23T04:10:14.736Z,0.70
2022-12-23T04:12:41.288Z,1.00
2022-12-23T04:15:12.843Z,1.88
2022-12-23T04:17:39.655Z,0.77
2022-12-23T04:20:06.410Z,1.48
2022-12-23T04:22:32.782Z,0.75
2022-12-23T04:24:59.136Z,1.15
2022-12-23T04:27:25.472Z,0.50
2022-12-23T04:29:51.855Z,0.90
2022-12-23T04:32:18.283Z,1.23
2022-12-23T04:34:44.658Z,0.57
2022-12-23T04:37:11.028Z,0.45
2022-12-23T04:39:37.408Z,0.50
2022-12-23T04:42:03.808Z,0.57
2022-12-23T04:44:30.288Z,1.23
2022-12-23T04:46:56.712Z,0.40
2022-12-23T04:49:23.065Z,0.75
2022-12-23T04:51:49.419Z,0.63
2022-12-23T04:54:15.829Z,2.60
2022-12-23T04:56:42.304Z,1.05
2022-12-23T04:59:09.656Z,1.10
2022-12-23T05:01:36.192Z,1.10
2022-12-23T05:04:02.620Z,1.35
2022-12-23T05:06:28.988Z,1.38
2022-12-23T05:08:55.287Z,1.00
2022-12-23T05:11:21.718Z,1.58
2022-12-23T05:13:48.123Z,1.98
2022-12-23T05:16:14.685Z,0.73
2022-12-23T05:18:41.042Z,0.85
2022-12-23T05:21:07.417Z,0.95
2022-12-23T05:23:33.779Z,1.65
2022-12-23T05:26:00.125Z,0.80
2022-12-23T05:28:26.497Z,1.27
2022-12-23T05:30:59.559Z,0.80
2022-12-23T05:33:26.420Z,1.23
2022-12-23T05:35:52.825Z,0.65
2022-12-23T05:38:19.171Z,0.93
2022-12-23T05:40:45.585Z,1.23
2022-12-23T05:43:11.976Z,0.63
2022-12-23T05:45:38.466Z,0.60
2022-12-23T05:48:05.199Z,0.68
2022-12-23T05:50:31.596Z,0.50
2022-12-23T05:53:01.309Z,0.77
2022-12-23T05:55:27.662Z,0.98
2022-12-23T05:57:54.283Z,1.75
2022-12-23T06:00:20.945Z,1.75
2022-12-23T06:02:53.299Z,0.80
2022-12-23T06:05:20.364Z,1.97
2022-12-23T06:07:46.775Z,1.00
2022-12-23T06:10:13.146Z,1.98
2022-12-23T06:12:39.520Z,1.38
2022-12-23T06:15:06.277Z,2.38
2022-12-23T06:17:32.727Z,1.95
2022-12-23T06:19:59.137Z,1.58
2022-12-23T06:22:25.653Z,0.77
2022-12-23T06:24:52.041Z,0.82
2022-12-23T06:27:18.458Z,2.00
2022-12-23T06:29:44.798Z,1.30
2022-12-23T06:32:11.218Z,0.55
2022-12-23T06:34:37.576Z,1.17
2022-12-23T06:37:03.941Z,1.17
2022-12-23T06:39:30.390Z,0.98
2022-12-23T06:41:56.765Z,1.02
2022-12-23T06:44:23.114Z,1.92
2022-12-23T06:46:49.470Z,1.58
2022-12-23T06:49:15.904Z,0.70
2022-12-23T06:51:42.295Z,1.17
2022-12-23T06:54:12.002Z,1.00
2022-12-23T06:56:38.868Z,0.98
2022-12-23T06:59:05.377Z,1.27
2022-12-23T07:01:31.875Z,0.98
2022-12-23T07:03:58.310Z,1.13
2022-12-23T07:06:24.676Z,0.80
2022-12-23T07:08:51.042Z,0.95
2022-12-23T07:11:17.397Z,1.48
2022-12-23T07:13:43.823Z,0.90
2022-12-23T07:16:10.256Z,0.98
2022-12-23T07:18:36.661Z,1.02
2022-12-23T07:21:03.445Z,0.65
2022-12-23T07:23:29.894Z,0.60
2022-12-23T07:25:56.422Z,0.68
2022-12-23T07:28:23.072Z,1.27
2022-12-23T07:30:49.463Z,0.80
2022-12-23T07:33:15.883Z,0.65
2022-12-23T07:35:42.392Z,3.53
2022-12-23T07:38:08.981Z,5.47
2022-12-23T07:40:35.582Z,0.80
2022-12-23T07:43:01.911Z,0.60
2022-12-23T07:45:29.215Z,2.42
2022-12-23T07:47:56.748Z,1.73
2022-12-23T07:50:23.465Z,0.63
2022-12-23T07:52:49.945Z,0.80
2022-12-23T07:55:16.312Z,1.77
2022-12-23T07:57:42.753Z,2.55
2022-12-23T08:00:10.874Z,1.50
2022-12-23T08:02:40.464Z,1.00
2022-12-23T08:05:07.238Z,1.85
2022-12-23T08:07:33.574Z,2.67
2022-12-23T08:10:00.020Z,3.03
2022-12-23T08:12:26.360Z,2.63
2022-12-23T08:14:52.885Z,1.42
2022-12-23T08:17:21.367Z,3.58
2022-12-23T08:19:48.316Z,2.03
2022-12-23T08:22:14.683Z,1.73
2022-12-23T08:24:41.007Z,0.90
2022-12-23T08:27:07.337Z,1.70
2022-12-23T08:29:36.410Z,1.20
2022-12-23T08:32:03.196Z,2.45
2022-12-23T08:34:29.518Z,2.95
2022-12-23T08:36:55.840Z,2.13
2022-12-23T08:39:22.189Z,3.15
2022-12-23T08:41:48.802Z,3.28
2022-12-23T08:44:15.718Z,2.03
2022-12-23T08:46:42.362Z,8.20
2022-12-23T08:49:09.285Z,2.75
2022-12-23T08:51:36.057Z,1.42
2022-12-23T08:54:02.385Z,1.40
2022-12-23T08:56:30.121Z,2.72
2022-12-23T08:58:56.569Z,1.45
2022-12-23T09:01:24.258Z,3.33
2022-12-23T09:03:50.814Z,3.03
2022-12-23T09:06:23.207Z,2.20
2022-12-23T09:08:53.392Z,1.75
2022-12-23T09:11:20.862Z,2.40
2022-12-23T09:13:47.565Z,2.38
2022-12-23T09:16:14.610Z,1.65
2022-12-23T09:18:41.941Z,1.90
2022-12-23T09:21:10.886Z,3.13
2022-12-23T09:23:37.261Z,4.15
2022-12-23T09:26:04.410Z,7.32
2022-12-23T09:28:30.723Z,3.90
2022-12-23T09:30:57.058Z,1.67
2022-12-23T09:33:23.444Z,5.93
2022-12-23T09:35:49.902Z,8.60
2022-12-23T09:38:16.880Z,6.72
2022-12-23T09:40:43.335Z,4.13
2022-12-23T09:43:33.569Z,3.65
2022-12-23T09:46:03.001Z,2.72
2022-12-23T09:48:33.058Z,2.97
2022-12-23T09:51:00.390Z,3.72
2022-12-23T09:53:31.758Z,2.95
2022-12-23T09:56:06.100Z,2.30
2022-12-23T09:58:43.417Z,2.00
2022-12-23T10:01:18.821Z,3.85
2022-12-23T10:04:07.115Z,1.70
2022-12-23T10:06:34.339Z,2.05
2022-12-23T10:09:02.099Z,5.88
2022-12-23T10:11:31.052Z,3.97
2022-12-23T10:14:15.725Z,2.47
2022-12-23T10:16:44.340Z,5.75
2022-12-23T10:19:13.462Z,2.92
2022-12-23T10:21:43.714Z,4.75
2022-12-23T10:24:20.398Z,2.95
2022-12-23T10:26:51.738Z,2.45
2022-12-23T10:29:19.906Z,1.67
2022-12-23T10:31:51.204Z,4.50
2022-12-23T10:34:22.216Z,4.07
2022-12-23T10:37:02.853Z,2.90
2022-12-23T10:39:36.941Z,5.28
2022-12-23T10:42:21.839Z,5.35
2022-12-23T10:44:57.415Z,2.00
2022-12-23T10:47:23.756Z,1.30
2022-12-23T10:50:04.985Z,3.42
2022-12-23T10:52:34.761Z,1.52
2022-12-23T10:55:01.129Z,2.22
2022-12-23T10:57:29.005Z,1.58
2022-12-23T10:59:56.749Z,3.38
2022-12-23T11:02:31.960Z,3.17
2022-12-23T11:04:58.439Z,2.88
2022-12-23T11:07:43.879Z,3.17
2022-12-23T11:10:16.841Z,3.75
2022-12-23T11:12:45.209Z,2.60
2022-12-23T11:15:26.689Z,4.45
2022-12-23T11:18:05.521Z,2.85
2022-12-23T11:20:32.456Z,2.50
2022-12-23T11:23:01.935Z,3.88
2022-12-23T11:25:28.489Z,3.08
2022-12-23T11:28:15.499Z,3.47
2022-12-23T11:30:55.889Z,4.15
2022-12-23T11:33:25.360Z,5.30
2022-12-23T11:36:02.661Z,3.95
2022-12-23T11:38:29.276Z,4.18
2022-12-23T11:40:55.653Z,5.10
2022-12-23T11:43:22.850Z,4.43
2022-12-23T11:46:09.234Z,4.65
2022-12-23T11:48:35.617Z,9.95
2022-12-23T11:51:03.044Z,4.25
2022-12-23T11:53:30.096Z,6.18
2022-12-23T11:56:02.656Z,4.45
2022-12-23T11:58:29.846Z,4.85
2022-12-23T12:01:00.023Z,4.53
2022-12-23T12:03:28.383Z,3.67
2022-12-23T12:05:57.635Z,3.78
2022-12-23T12:08:30.514Z,6.63
2022-12-23T12:11:01.452Z,5.25
2022-12-23T12:13:32.593Z,6.00
2022-12-23T12:16:11.143Z,3.90
2022-12-23T12:18:39.625Z,4.65
2022-12-23T12:21:09.544Z,3.45
2022-12-23T12:23:38.971Z,2.47
2022-12-23T12:26:07.811Z,2.60
2022-12-23T12:28:38.740Z,3.45
2022-12-23T12:31:20.293Z,2.65
2022-12-23T12:33:49.747Z,2.13
2022-12-23T12:36:20.015Z,1.20
2022-12-23T12:38:48.114Z,1.98
2022-12-23T12:41:22.822Z,3.13
2022-12-23T12:44:12.538Z,1.58
2022-12-23T12:46:41.964Z,1.30
2022-12-23T12:49:15.060Z,1.95
2022-12-23T12:52:00.410Z,1.65
2022-12-23T12:54:26.786Z,1.17
2022-12-23T12:56:54.939Z,4.88
2022-12-23T12:59:22.613Z,7.20
2022-12-23T13:02:05.176Z,3.50
2022-12-23T13:04:47.808Z,6.05
2022-12-23T13:07:33.273Z,2.72
2022-12-23T13:10:12.589Z,3.88
2022-12-23T13:12:56.050Z,2.08
2022-12-23T13:15:49.064Z,7.80
2022-12-23T13:18:19.315Z,2.15
2022-12-23T13:20:54.336Z,1.00
2022-12-23T13:23:43.686Z,1.33
2022-12-23T13:26:23.621Z,1.00
2022-12-23T13:29:24.969Z,0.60
2022-12-23T13:32:02.418Z,0.82
2022-12-23T13:34:39.761Z,0.80
2022-12-23T13:37:16.885Z,0.95
2022-12-23T13:39:54.017Z,1.30
2022-12-23T13:42:27.736Z,1.13
2022-12-23T13:44:55.105Z,0.70
2022-12-23T13:47:34.086Z,0.85
2022-12-23T13:50:00.504Z,0.68
2022-12-23T13:52:32.966Z,0.50
2022-12-23T13:55:21.498Z,1.95
2022-12-23T13:57:47.847Z,0.88
2022-12-23T14:00:17.365Z,1.02
2022-12-23T14:03:02.423Z,1.40
2022-12-23T14:05:33.936Z,0.50
2022-12-23T14:08:02.091Z,1.13
2022-12-23T14:10:28.876Z,0.60
2022-12-23T14:13:00.449Z,0.43
2022-12-23T14:15:49.431Z,0.80
2022-12-23T14:18:34.460Z,0.80
2022-12-23T14:21:19.409Z,0.55
2022-12-23T14:23:52.234Z,0.50
2022-12-23T14:26:25.081Z,1.20
2022-12-23T14:28:57.415Z,0.70
2022-12-23T14:31:44.531Z,0.90
2022-12-23T14:34:23.099Z,0.95
2022-12-23T14:37:08.312Z,2.35
2022-12-23T14:39:34.759Z,1.00
2022-12-23T14:42:05.928Z,1.15
2022-12-23T14:44:36.021Z,1.02
2022-12-23T14:47:04.060Z,0.70
2022-12-23T14:49:40.284Z,0.88
2022-12-23T14:52:26.231Z,1.52
2022-12-23T14:55:28.054Z,1.10
2022-12-23T14:57:38.966Z,1.88
2022-12-23T15:00:05.620Z,0.80
2022-12-23T15:02:40.835Z,0.93
2022-12-23T15:05:08.226Z,0.60
2022-12-23T15:07:36.290Z,0.70
2022-12-23T15:10:05.330Z,1.00
2022-12-23T15:12:33.207Z,2.50
2022-12-23T15:15:01.948Z,1.60
2022-12-23T15:17:28.391Z,2.53
2022-12-23T15:20:04.748Z,1.33
2022-12-23T15:22:32.774Z,1.60
2022-12-23T15:24:59.313Z,1.92
2022-12-23T15:27:28.390Z,1.40
2022-12-23T15:29:55.718Z,1.40
2022-12-23T15:32:23.494Z,1.50
2022-12-23T15:34:50.928Z,2.50
2022-12-23T15:37:19.062Z,4.90
2022-12-23T15:39:45.660Z,11.93
2022-12-23T15:42:25.696Z,4.40
2022-12-23T15:44:52.398Z,1.27
2022-12-23T15:47:29.659Z,1.60
2022-12-23T15:49:57.955Z,2.42
2022-12-23T15:52:24.511Z,1.75
2022-12-23T15:54:56.119Z,1.17
2022-12-23T15:57:24.048Z,1.83
2022-12-23T15:59:50.536Z,2.45
2022-12-23T16:02:59.138Z,1.00
2022-12-23T16:05:12.427Z,0.68
2022-12-23T16:07:40.680Z,1.67
2022-12-23T16:10:15.095Z,1.25
2022-12-23T16:12:42.017Z,0.85
2022-12-23T16:15:20.671Z,1.13
2022-12-23T16:17:47.119Z,1.35
2022-12-23T16:20:19.848Z,1.38
2022-12-23T16:22:49.071Z,1.38
2022-12-23T16:25:15.471Z,1.40
2022-12-23T16:27:41.809Z,1.60
2022-12-23T16:30:10.373Z,0.85
2022-12-23T16:32:54.653Z,1.48
2022-12-23T16:35:25.528Z,2.40
2022-12-23T16:37:52.619Z,1.20
2022-12-23T16:40:19.594Z,2.88
2022-12-23T16:42:45.966Z,2.30
2022-12-23T16:45:13.500Z,3.90
2022-12-23T16:47:41.597Z,2.55
2022-12-23T16:50:09.849Z,3.63
2022-12-23T16:52:36.277Z,4.43
2022-12-23T16:55:06.134Z,3.15
2022-12-23T16:57:32.975Z,2.92
2022-12-23T16:59:59.334Z,2.50
2022-12-23T17:02:28.086Z,3.70
2022-12-23T17:04:54.506Z,2.50
2022-12-23T17:07:21.105Z,4.07
2022-12-23T17:09:47.474Z,7.63
2022-12-23T17:12:13.969Z,7.75
2022-12-23T17:14:40.340Z,7.32
2022-12-23T17:17:13.304Z,6.72
2022-12-23T17:19:39.666Z,4.70
2022-12-23T17:22:06.106Z,6.28
2022-12-23T17:24:32.485Z,6.47
2022-12-23T17:26:58.864Z,6.13
2022-12-23T17:29:25.427Z,5.47
2022-12-23T17:31:52.200Z,4.28
2022-12-23T17:34:19.970Z,3.63
2022-12-23T17:36:50.370Z,3.35
2022-12-23T17:39:17.465Z,2.40
2022-12-23T17:41:43.957Z,2.65
2022-12-23T17:44:13.258Z,2.67
2022-12-23T17:46:39.632Z,1.55
2022-12-23T17:49:06.030Z,1.75
2022-12-23T17:51:32.421Z,3.17
2022-12-23T17:53:59.813Z,1.83
2022-12-23T17:56:27.856Z,2.28
2022-12-23T17:58:54.357Z,4.03
2022-12-23T18:01:25.255Z,1.95
2022-12-23T18:03:52.059Z,2.63
2022-12-23T18:06:19.578Z,3.13
2022-12-23T18:08:46.272Z,5.60
2022-12-23T18:11:26.267Z,2.65
2022-12-23T18:13:53.211Z,4.47
2022-12-23T18:16:19.587Z,3.25
2022-12-23T18:18:47.055Z,2.42
2022-12-23T18:21:17.102Z,5.10
2022-12-23T18:23:43.518Z,2.85
2022-12-23T18:26:12.593Z,5.45
2022-12-23T18:28:38.985Z,3.53
2022-12-23T18:31:05.456Z,4.55
2022-12-23T18:33:31.903Z,3.42
2022-12-23T18:35:58.347Z,4.28
2022-12-23T18:38:24.809Z,4.40
2022-12-23T18:40:53.955Z,4.43
2022-12-23T18:43:22.028Z,4.40
2022-12-23T18:45:52.739Z,5.93
2022-12-23T18:48:20.130Z,3.72
2022-12-23T18:50:46.706Z,5.18
2022-12-23T18:53:23.521Z,4.30
2022-12-23T18:55:51.303Z,6.45
2022-12-23T18:58:18.309Z,4.43
2022-12-23T19:00:45.251Z,2.72
2022-12-23T19:03:22.543Z,6.65
2022-12-23T19:05:49.925Z,5.32
2022-12-23T19:08:21.823Z,6.28
2022-12-23T19:10:52.457Z,8.07
2022-12-23T19:13:19.209Z,6.45
2022-12-23T19:15:46.085Z,8.98
2022-12-23T19:18:19.892Z,8.10
2022-12-23T19:20:46.874Z,7.50
2022-12-23T19:23:13.544Z,8.82
2022-12-23T19:25:41.032Z,4.72
2022-12-23T19:28:07.489Z,7.47
2022-12-23T19:30:34.512Z,6.25
2022-12-23T19:33:00.991Z,5.03
2022-12-23T19:35:27.491Z,4.57
2022-12-23T19:37:54.076Z,6.53
2022-12-23T19:40:20.479Z,5.80
2022-12-23T19:42:46.860Z,6.00
2022-12-23T19:45:13.247Z,8.07
2022-12-23T19:47:39.707Z,9.57
2022-12-23T19:50:06.674Z,10.43
2022-12-23T19:52:33.168Z,7.90
2022-12-23T19:54:59.520Z,5.55
2022-12-23T19:57:25.851Z,7.00
2022-12-23T19:59:52.225Z,5.32
2022-12-23T20:02:19.971Z,7.72
2022-12-23T20:04:46.571Z,8.15
2022-12-23T20:07:12.990Z,10.20
2022-12-23T20:09:39.440Z,13.25
2022-12-23T20:12:05.889Z,14.80
2022-12-23T20:14:34.422Z,8.38
2022-12-23T20:17:01.528Z,10.68
2022-12-23T20:19:28.048Z,12.35
2022-12-23T20:21:54.415Z,10.10
2022-12-23T20:24:20.842Z,10.30
2022-12-23T20:26:47.607Z,9.55
2022-12-23T20:29:14.229Z,15.05
2022-12-23T20:31:41.028Z,7.25
2022-12-23T20:34:08.794Z,10.68
2022-12-23T20:36:36.026Z,13.60
2022-12-23T20:39:03.467Z,11.23
2022-12-23T20:41:31.132Z,15.20
2022-12-23T20:44:32.384Z,12.10
2022-12-23T20:46:44.338Z,12.50
2022-12-23T20:49:10.756Z,9.40
2022-12-23T20:51:37.299Z,12.65
2022-12-23T20:54:03.855Z,9.25
2022-12-23T20:56:30.502Z,14.45
2022-12-23T20:58:58.988Z,11.73
2022-12-23T21:01:27.237Z,11.30
2022-12-23T21:03:53.833Z,19.02
2022-12-23T21:06:20.672Z,10.75
2022-12-23T21:08:47.235Z,12.45
2022-12-23T21:11:13.761Z,9.65
2022-12-23T21:13:40.526Z,13.55
2022-12-23T21:16:08.653Z,13.80
2022-12-23T21:18:35.323Z,13.65
2022-12-23T21:21:02.696Z,12.30
2022-12-23T21:23:29.188Z,10.65
2022-12-23T21:26:06.164Z,12.32
2022-12-23T21:28:32.524Z,9.85
2022-12-23T21:30:58.952Z,12.63
2022-12-23T21:33:25.330Z,9.05
2022-12-23T21:35:51.733Z,9.27
2022-12-23T21:38:18.167Z,8.98
2022-12-23T21:40:44.621Z,8.35
2022-12-23T21:43:10.999Z,12.82
2022-12-23T21:45:37.423Z,13.63
2022-12-23T21:48:03.900Z,11.63
2022-12-23T21:50:30.257Z,7.10
2022-12-23T21:52:56.633Z,13.07
2022-12-23T21:55:22.996Z,5.78
2022-12-23T21:57:49.317Z,9.00
2022-12-23T22:00:16.132Z,9.35
2022-12-23T22:02:42.962Z,13.00
2022-12-23T22:05:12.178Z,8.23
2022-12-23T22:07:44.220Z,9.25
2022-12-23T22:10:10.912Z,8.00
2022-12-23T22:12:38.017Z,10.73
2022-12-23T22:15:12.403Z,11.38
2022-12-23T22:17:40.113Z,8.95
2022-12-23T22:20:14.298Z,8.77
2022-12-23T22:22:40.725Z,9.63
2022-12-23T22:25:07.266Z,7.82
2022-12-23T22:27:33.936Z,11.88
2022-12-23T22:30:00.373Z,11.00
2022-12-23T22:32:26.757Z,7.97
2022-12-23T22:34:53.127Z,10.57
2022-12-23T22:37:19.510Z,9.13
2022-12-23T22:39:53.677Z,8.20
2022-12-23T22:42:21.728Z,9.93
2022-12-23T22:44:48.183Z,7.18
2022-12-23T22:47:14.690Z,8.30
2022-12-23T22:49:41.289Z,9.70
2022-12-23T22:52:08.539Z,14.48
2022-12-23T22:54:35.024Z,13.48
2022-12-23T22:57:01.419Z,8.60
2022-12-23T22:59:27.971Z,9.88
2022-12-23T23:01:54.574Z,9.13
2022-12-23T23:04:24.312Z,9.60
2022-12-23T23:06:53.910Z,10.07
2022-12-23T23:09:21.093Z,6.90
2022-12-23T23:11:48.030Z,8.95
2022-12-23T23:14:16.065Z,9.52
2022-12-23T23:16:42.716Z,10.23
2022-12-23T23:19:10.180Z,8.48
2022-12-23T23:21:37.673Z,10.93
2022-12-23T23:24:04.668Z,8.52
2022-12-23T23:26:31.055Z,8.75
2022-12-23T23:28:57.531Z,13.45
2022-12-23T23:31:42.462Z,11.82
2022-12-23T23:34:10.070Z,10.27
2022-12-23T23:36:36.502Z,5.75
2022-12-23T23:39:03.075Z,4.47
2022-12-23T23:41:29.464Z,6.60
2022-12-23T23:43:55.987Z,14.35
2022-12-23T23:46:22.422Z,9.20
2022-12-23T23:48:48.993Z,6.40
2022-12-23T23:51:15.418Z,6.13
2022-12-23T23:53:41.850Z,5.22
2022-12-23T23:56:08.466Z,7.97
2022-12-23T23:58:35.960Z,8.60
